createdAt,value
2023-02-19T00:00:15.918Z,2.97
2023-02-19T00:02:46.641Z,2.33
2023-02-19T00:05:16.058Z,2.65
2023-02-19T00:07:44.076Z,2.67
2023-02-19T00:10:12.048Z,2.75
2023-02-19T00:12:39.957Z,2.60
2023-02-19T00:15:08.164Z,2.08
2023-02-19T00:17:37.165Z,2.22
2023-02-19T00:20:05.305Z,2.40
2023-02-19T00:22:34.741Z,3.50
2023-02-19T00:25:02.713Z,1.88
2023-02-19T00:27:30.881Z,3.42
2023-02-19T00:29:59.063Z,3.00
2023-02-19T00:32:27.001Z,2.22
2023-02-19T00:34:54.871Z,3.70
2023-02-19T00:37:22.864Z,1.80
2023-02-19T00:39:52.507Z,2.17
2023-02-19T00:42:23.133Z,1.60
2023-02-19T00:44:51.052Z,1.63
2023-02-19T00:47:21.266Z,3.63
2023-02-19T00:49:49.450Z,2.00
2023-02-19T00:52:17.500Z,2.45
2023-02-19T00:54:45.399Z,1.67
2023-02-19T00:57:14.960Z,1.58
2023-02-19T00:59:43.990Z,2.95
2023-02-19T01:02:12.126Z,1.23
2023-02-19T01:04:40.165Z,1.00
2023-02-19T01:07:10.126Z,2.28
2023-02-19T01:09:38.862Z,1.20
2023-02-19T01:12:07.244Z,2.17
2023-02-19T01:14:37.039Z,1.83
2023-02-19T01:17:05.174Z,1.10
2023-02-19T01:19:33.072Z,1.10
2023-02-19T01:22:00.971Z,0.93
2023-02-19T01:24:30.931Z,1.20
2023-02-19T01:26:58.944Z,1.10
2023-02-19T01:29:29.174Z,1.40
2023-02-19T01:31:58.666Z,1.10
2023-02-19T01:34:27.035Z,0.98
2023-02-19T01:36:55.043Z,1.05
2023-02-19T01:39:23.440Z,1.33
2023-02-19T01:41:51.321Z,1.17
2023-02-19T01:44:38.020Z,1.05
2023-02-19T01:47:08.441Z,3.55
2023-02-19T01:49:38.258Z,1.52
2023-02-19T01:52:09.362Z,1.20
2023-02-19T01:54:39.329Z,0.80
2023-02-19T01:57:09.354Z,4.38
2023-02-19T01:59:38.485Z,1.05
2023-02-19T02:02:09.057Z,1.13
2023-02-19T02:04:37.305Z,0.80
2023-02-19T02:07:27.291Z,0.70
2023-02-19T02:10:12.804Z,1.35
2023-02-19T02:12:40.788Z,1.98
2023-02-19T02:15:09.520Z,0.77
2023-02-19T02:17:42.414Z,0.90
2023-02-19T02:20:20.169Z,0.80
2023-02-19T02:22:50.641Z,2.40
2023-02-19T02:25:27.404Z,0.73
2023-02-19T02:27:58.539Z,3.53
2023-02-19T02:30:40.907Z,1.15
2023-02-19T02:33:15.996Z,2.13
2023-02-19T02:35:47.231Z,1.05
2023-02-19T02:38:16.497Z,0.93
2023-02-19T02:40:45.329Z,0.85
2023-02-19T02:43:14.823Z,1.00
2023-02-19T02:45:44.399Z,0.93
2023-02-19T02:48:33.772Z,1.02
2023-02-19T02:51:04.625Z,0.75
2023-02-19T02:53:57.561Z,1.00
2023-02-19T02:56:26.611Z,0.40
2023-02-19T02:58:55.470Z,0.77
2023-02-19T03:01:44.120Z,1.20
2023-02-19T03:04:15.426Z,0.95
2023-02-19T03:06:43.723Z,0.43
2023-02-19T03:09:12.907Z,1.75
2023-02-19T03:12:01.352Z,0.98
2023-02-19T03:14:49.204Z,0.95
2023-02-19T03:17:40.443Z,0.70
2023-02-19T03:20:10.427Z,0.80
2023-02-19T03:22:39.562Z,1.27
2023-02-19T03:25:26.367Z,2.22
2023-02-19T03:27:55.520Z,1.15
2023-02-19T03:30:25.482Z,2.60
2023-02-19T03:32:56.593Z,0.73
2023-02-19T03:35:25.437Z,0.85
2023-02-19T03:37:58.288Z,1.05
2023-02-19T03:40:29.468Z,0.88
2023-02-19T03:43:00.493Z,1.30
2023-02-19T03:45:32.976Z,0.98
2023-02-19T03:48:11.312Z,0.75
2023-02-19T03:50:45.072Z,1.00
2023-02-19T03:53:16.270Z,0.90
2023-02-19T03:55:48.244Z,0.60
2023-02-19T03:58:18.290Z,2.28
2023-02-19T04:00:49.517Z,3.00
2023-02-19T04:03:21.716Z,1.30
2023-02-19T04:05:51.181Z,0.90
2023-02-19T04:08:20.611Z,1.10
2023-02-19T04:10:55.634Z,3.33
2023-02-19T04:13:28.514Z,1.45
2023-02-19T04:15:58.107Z,1.35
2023-02-19T04:18:29.817Z,1.05
2023-02-19T04:20:59.253Z,0.82
2023-02-19T04:23:28.040Z,0.95
2023-02-19T04:25:57.379Z,1.25
2023-02-19T04:28:25.268Z,1.00
2023-02-19T04:30:53.360Z,0.60
2023-02-19T04:33:21.255Z,2.63
2023-02-19T04:35:50.753Z,0.85
2023-02-19T04:38:18.765Z,0.88
2023-02-19T04:40:46.910Z,0.90
2023-02-19T04:43:15.411Z,2.80
2023-02-19T04:45:43.402Z,1.90
2023-02-19T04:48:11.370Z,3.60
2023-02-19T04:50:39.471Z,1.17
2023-02-19T04:53:09.083Z,1.70
2023-02-19T04:55:38.035Z,2.75
2023-02-19T04:58:06.051Z,1.20
2023-02-19T05:00:34.180Z,1.73
2023-02-19T05:03:02.459Z,1.95
2023-02-19T05:05:30.461Z,1.50
2023-02-19T05:07:58.400Z,1.13
2023-02-19T05:10:27.655Z,1.13
2023-02-19T05:12:57.954Z,0.52
2023-02-19T05:15:26.272Z,1.48
2023-02-19T05:17:54.232Z,5.53
2023-02-19T05:20:23.105Z,1.73
2023-02-19T05:22:51.059Z,1.10
2023-02-19T05:25:19.127Z,2.63
2023-02-19T05:27:49.680Z,1.55
2023-02-19T05:30:17.724Z,2.53
2023-02-19T05:32:45.570Z,2.03
2023-02-19T05:35:13.485Z,1.15
2023-02-19T05:37:41.371Z,1.30
2023-02-19T05:40:09.573Z,1.60
2023-02-19T05:42:37.520Z,1.50
2023-02-19T05:45:07.396Z,2.65
2023-02-19T05:47:35.355Z,4.05
2023-02-19T05:50:03.325Z,1.48
2023-02-19T05:52:31.221Z,1.40
2023-02-19T05:54:59.206Z,2.85
2023-02-19T05:57:27.097Z,2.45
2023-02-19T05:59:55.116Z,1.88
2023-02-19T06:02:24.504Z,1.50
2023-02-19T06:04:52.709Z,3.22
2023-02-19T06:07:20.580Z,4.63
2023-02-19T06:09:51.297Z,4.32
2023-02-19T06:12:19.272Z,4.07
2023-02-19T06:14:47.074Z,2.90
2023-02-19T06:17:15.455Z,4.55
2023-02-19T06:19:44.734Z,8.27
2023-02-19T06:22:12.638Z,3.53
2023-02-19T06:24:40.854Z,3.80
2023-02-19T06:27:09.284Z,4.63
2023-02-19T06:29:38.520Z,3.38
2023-02-19T06:32:08.088Z,6.60
2023-02-19T06:34:36.766Z,3.20
2023-02-19T06:37:06.139Z,4.57
2023-02-19T06:39:34.012Z,20.50
2023-02-19T06:42:01.830Z,6.00
2023-02-19T06:44:29.778Z,6.38
2023-02-19T06:46:57.688Z,7.25
2023-02-19T06:49:25.523Z,6.00
2023-02-19T06:51:53.669Z,7.50
2023-02-19T06:54:22.925Z,10.10
2023-02-19T06:56:50.786Z,9.20
2023-02-19T06:59:18.642Z,10.95
2023-02-19T07:01:46.875Z,10.80
2023-02-19T07:04:14.873Z,13.18
2023-02-19T07:06:42.970Z,18.73
2023-02-19T07:09:11.790Z,22.25
2023-02-19T07:11:41.283Z,19.60
2023-02-19T07:14:09.820Z,22.20
2023-02-19T07:16:39.069Z,25.48
2023-02-19T07:19:07.057Z,25.90
2023-02-19T07:21:37.898Z,27.90
2023-02-19T07:24:06.250Z,23.75
2023-02-19T07:26:34.209Z,28.50
2023-02-19T07:29:03.528Z,29.83
2023-02-19T07:31:33.751Z,31.88
2023-02-19T07:34:01.739Z,29.52
2023-02-19T07:36:29.665Z,29.02
2023-02-19T07:38:58.179Z,28.83
2023-02-19T07:41:28.481Z,28.00
2023-02-19T07:43:58.608Z,36.55
2023-02-19T07:46:28.030Z,34.22
2023-02-19T07:48:55.929Z,35.38
2023-02-19T07:51:23.901Z,36.03
2023-02-19T07:53:52.072Z,35.20
2023-02-19T07:56:20.878Z,42.00
2023-02-19T07:58:49.214Z,39.80
2023-02-19T08:01:18.098Z,33.10
2023-02-19T08:03:48.290Z,38.47
2023-02-19T08:06:18.160Z,39.97
2023-02-19T08:08:46.064Z,37.38
2023-02-19T08:11:31.451Z,36.95
2023-02-19T08:13:59.357Z,43.80
2023-02-19T08:16:42.089Z,35.97
2023-02-19T08:19:12.314Z,33.45
2023-02-19T08:21:40.562Z,39.35
2023-02-19T08:24:08.730Z,33.45
2023-02-19T08:26:36.753Z,35.78
2023-02-19T08:29:05.057Z,33.25
2023-02-19T08:31:33.395Z,27.63
2023-02-19T08:34:01.851Z,28.25
2023-02-19T08:36:31.160Z,30.52
2023-02-19T08:38:59.120Z,27.85
2023-02-19T08:41:26.921Z,21.10
2023-02-19T08:43:55.096Z,23.75
2023-02-19T08:46:23.742Z,20.25
2023-02-19T08:48:52.242Z,15.65
2023-02-19T08:51:20.189Z,16.42
2023-02-19T08:53:50.120Z,8.57
2023-02-19T08:56:18.734Z,7.65
2023-02-19T08:58:46.602Z,7.47
2023-02-19T09:01:20.285Z,6.15
2023-02-19T09:03:49.923Z,7.88
2023-02-19T09:06:18.906Z,5.32
2023-02-19T09:08:47.078Z,6.03
2023-02-19T09:11:17.044Z,7.00
2023-02-19T09:13:45.690Z,6.40
2023-02-19T09:16:13.706Z,7.70
2023-02-19T09:18:41.658Z,8.02
2023-02-19T09:21:10.193Z,6.72
2023-02-19T09:23:38.406Z,13.25
2023-02-19T09:26:09.391Z,12.27
2023-02-19T09:28:41.714Z,10.20
2023-02-19T09:31:12.376Z,22.73
2023-02-19T09:33:43.066Z,18.13
2023-02-19T09:36:11.062Z,15.75
2023-02-19T09:38:40.057Z,21.52
2023-02-19T09:41:09.260Z,19.52
2023-02-19T09:43:38.859Z,16.58
2023-02-19T09:46:10.744Z,22.33
2023-02-19T09:48:41.064Z,17.05
2023-02-19T09:51:10.358Z,19.58
2023-02-19T09:53:41.938Z,16.85
2023-02-19T09:56:10.093Z,19.52
2023-02-19T09:58:43.515Z,15.63
2023-02-19T10:01:13.003Z,22.45
2023-02-19T10:03:43.440Z,19.15
2023-02-19T10:06:16.871Z,22.27
2023-02-19T10:08:47.981Z,23.30
2023-02-19T10:11:16.949Z,22.40
2023-02-19T10:13:48.896Z,22.10
2023-02-19T10:16:18.886Z,25.58
2023-02-19T10:18:48.010Z,19.77
2023-02-19T10:21:19.579Z,21.17
2023-02-19T10:23:48.851Z,24.13
2023-02-19T10:26:16.752Z,31.60
2023-02-19T10:28:45.965Z,23.73
2023-02-19T10:31:20.156Z,18.80
2023-02-19T10:33:52.418Z,14.88
2023-02-19T10:36:29.857Z,14.10
2023-02-19T10:39:00.111Z,13.25
2023-02-19T10:41:28.380Z,13.27
2023-02-19T10:44:00.086Z,13.50
2023-02-19T10:46:29.043Z,12.48
2023-02-19T10:48:58.353Z,11.75
2023-02-19T10:51:32.123Z,11.70
2023-02-19T10:54:07.660Z,11.02
2023-02-19T10:56:38.615Z,8.93
2023-02-19T10:59:24.510Z,9.38
2023-02-19T11:01:57.503Z,9.80
2023-02-19T11:04:25.970Z,6.45
2023-02-19T11:06:54.101Z,6.18
2023-02-19T11:09:26.631Z,4.78
2023-02-19T11:11:55.439Z,7.75
2023-02-19T11:14:24.904Z,4.68
2023-02-19T11:16:58.759Z,5.60
2023-02-19T11:19:30.388Z,6.43
2023-02-19T11:21:59.248Z,4.30
2023-02-19T11:24:29.321Z,3.38
2023-02-19T11:26:57.860Z,7.07
2023-02-19T11:29:28.775Z,5.43
2023-02-19T11:31:57.422Z,12.40
2023-02-19T11:34:31.096Z,6.47
2023-02-19T11:37:09.660Z,4.35
2023-02-19T11:39:37.870Z,5.82
2023-02-19T11:42:11.385Z,4.03
2023-02-19T11:44:44.969Z,5.72
2023-02-19T11:47:31.344Z,8.85
2023-02-19T11:50:04.331Z,6.70
2023-02-19T11:52:34.701Z,5.65
2023-02-19T11:55:07.073Z,6.38
2023-02-19T11:57:39.289Z,6.07
2023-02-19T12:00:30.980Z,6.55
2023-02-19T12:03:18.327Z,5.75
2023-02-19T12:05:51.142Z,4.15
2023-02-19T12:08:33.845Z,8.77
2023-02-19T12:11:06.215Z,4.50
2023-02-19T12:13:40.110Z,3.53
2023-02-19T12:16:12.769Z,4.45
2023-02-19T12:18:46.651Z,7.70
2023-02-19T12:21:25.314Z,11.48
2023-02-19T12:24:03.898Z,5.25
2023-02-19T12:26:32.444Z,4.55
2023-02-19T12:29:18.199Z,6.72
2023-02-19T12:32:00.993Z,6.00
2023-02-19T12:34:39.043Z,8.13
2023-02-19T12:37:15.806Z,4.32
2023-02-19T12:39:46.947Z,4.22
2023-02-19T12:42:21.045Z,3.25
2023-02-19T12:44:50.222Z,6.20
2023-02-19T12:47:20.356Z,6.18
2023-02-19T12:49:50.445Z,4.57
2023-02-19T12:52:21.876Z,2.95
2023-02-19T12:54:53.606Z,2.60
2023-02-19T12:57:24.301Z,3.75
2023-02-19T12:59:55.365Z,4.90
2023-02-19T13:02:25.782Z,1.95
2023-02-19T13:04:57.669Z,1.02
2023-02-19T13:07:29.335Z,2.00
2023-02-19T13:10:00.322Z,1.50
2023-02-19T13:12:30.292Z,8.02
2023-02-19T13:14:59.220Z,3.17
2023-02-19T13:17:28.768Z,3.20
2023-02-19T13:19:58.618Z,2.10
2023-02-19T13:22:50.285Z,4.10
2023-02-19T13:25:19.669Z,3.58
2023-02-19T13:27:56.990Z,5.28
2023-02-19T13:30:42.825Z,1.90
2023-02-19T13:33:21.644Z,2.97
2023-02-19T13:36:06.240Z,2.58
2023-02-19T13:38:38.576Z,1.30
2023-02-19T13:41:06.710Z,1.60
2023-02-19T13:43:36.686Z,2.78
2023-02-19T13:46:06.188Z,3.58
2023-02-19T13:48:35.050Z,1.13
2023-02-19T13:51:21.742Z,1.38
2023-02-19T13:53:52.575Z,1.13
2023-02-19T13:56:40.252Z,2.58
2023-02-19T13:59:15.176Z,2.03
2023-02-19T14:02:18.661Z,2.97
2023-02-19T14:04:54.228Z,1.88
2023-02-19T14:07:46.143Z,0.70
2023-02-19T14:10:35.984Z,0.98
2023-02-19T14:13:03.852Z,2.20
2023-02-19T14:15:51.283Z,3.58
2023-02-19T14:18:38.018Z,7.60
2023-02-19T14:21:08.305Z,3.55
2023-02-19T14:23:36.236Z,2.40
2023-02-19T14:26:08.052Z,5.68
2023-02-19T14:28:37.720Z,1.40
2023-02-19T14:31:26.557Z,1.25
2023-02-19T14:33:56.261Z,2.63
2023-02-19T14:36:44.135Z,1.63
2023-02-19T14:39:14.232Z,1.30
2023-02-19T14:41:45.428Z,0.82
2023-02-19T14:44:16.993Z,0.90
2023-02-19T14:46:49.050Z,2.83
2023-02-19T14:49:19.594Z,1.45
2023-02-19T14:51:51.383Z,1.27
2023-02-19T14:54:22.044Z,1.27
2023-02-19T14:56:53.048Z,1.27
2023-02-19T14:59:25.852Z,1.20
2023-02-19T15:02:01.623Z,1.02
2023-02-19T15:04:35.843Z,1.08
2023-02-19T15:07:07.071Z,1.42
2023-02-19T15:09:38.269Z,1.02
2023-02-19T15:12:08.017Z,2.17
2023-02-19T15:14:35.998Z,1.05
2023-02-19T15:17:05.276Z,1.05
2023-02-19T15:19:35.119Z,2.15
2023-02-19T15:22:03.522Z,2.33
2023-02-19T15:24:31.422Z,1.75
2023-02-19T15:26:59.520Z,1.70
2023-02-19T15:29:30.142Z,0.60
2023-02-19T15:31:58.633Z,2.22
2023-02-19T15:34:28.281Z,2.20
2023-02-19T15:36:57.734Z,1.42
2023-02-19T15:39:26.313Z,3.92
2023-02-19T15:41:57.552Z,8.27
2023-02-19T15:44:31.710Z,1.52
2023-02-19T15:47:01.259Z,1.60
2023-02-19T15:49:31.221Z,1.48
2023-02-19T15:52:01.411Z,1.10
2023-02-19T15:54:32.386Z,0.65
2023-02-19T15:57:02.905Z,1.88
2023-02-19T15:59:36.928Z,0.45
2023-02-19T16:02:05.364Z,1.23
2023-02-19T16:04:35.238Z,0.88
2023-02-19T16:07:04.202Z,0.82
2023-02-19T16:09:33.502Z,0.70
2023-02-19T16:12:04.630Z,1.10
2023-02-19T16:14:34.455Z,0.70
2023-02-19T16:17:12.676Z,0.88
2023-02-19T16:19:45.276Z,0.55
2023-02-19T16:22:14.140Z,3.00
2023-02-19T16:24:45.767Z,1.05
2023-02-19T16:27:14.494Z,2.42
2023-02-19T16:29:51.434Z,0.90
2023-02-19T16:32:19.715Z,4.28
2023-02-19T16:34:49.246Z,0.65
2023-02-19T16:37:33.446Z,2.03
2023-02-19T16:40:27.172Z,1.40
2023-02-19T16:43:25.282Z,1.42
2023-02-19T16:45:54.677Z,0.63
2023-02-19T16:48:23.312Z,1.30
2023-02-19T16:50:51.270Z,1.75
2023-02-19T16:53:20.709Z,3.65
2023-02-19T16:55:49.112Z,3.30
2023-02-19T16:58:17.168Z,1.35
2023-02-19T17:00:45.043Z,1.98
2023-02-19T17:03:17.330Z,3.60
2023-02-19T17:05:45.366Z,2.15
2023-02-19T17:08:24.781Z,1.27
2023-02-19T17:10:54.090Z,2.55
2023-02-19T17:13:23.819Z,2.28
2023-02-19T17:15:51.984Z,1.90
2023-02-19T17:18:21.400Z,1.15
2023-02-19T17:20:51.240Z,1.25
2023-02-19T17:23:19.157Z,1.23
2023-02-19T17:25:47.317Z,1.98
2023-02-19T17:28:15.752Z,1.45
2023-02-19T17:30:43.908Z,1.35
2023-02-19T17:33:13.966Z,5.60
2023-02-19T17:35:45.018Z,4.00
2023-02-19T17:38:18.998Z,3.00
2023-02-19T17:40:49.255Z,1.48
2023-02-19T17:43:17.169Z,7.65
2023-02-19T17:45:45.114Z,2.17
2023-02-19T17:48:14.003Z,2.63
2023-02-19T17:50:43.271Z,2.08
2023-02-19T17:53:11.216Z,1.45
2023-02-19T17:55:39.275Z,1.30
2023-02-19T17:58:07.270Z,2.72
2023-02-19T18:00:36.750Z,2.00
2023-02-19T18:03:05.009Z,1.48
2023-02-19T18:05:33.034Z,4.53
2023-02-19T18:08:02.360Z,2.25
2023-02-19T18:10:30.579Z,1.42
2023-02-19T18:12:58.472Z,1.40
2023-02-19T18:15:27.493Z,1.77
2023-02-19T18:23:51.369Z,1.85
2023-02-19T18:26:21.157Z,1.95
2023-02-19T18:28:49.198Z,2.53
2023-02-19T18:31:17.204Z,1.40
2023-02-19T18:33:45.373Z,5.07
2023-02-19T18:36:13.641Z,1.00
2023-02-19T18:38:42.171Z,2.95
2023-02-19T18:41:14.229Z,3.63
2023-02-19T18:43:42.458Z,1.77
2023-02-19T18:46:10.590Z,1.30
2023-02-19T18:48:38.489Z,2.03
2023-02-19T18:51:06.579Z,1.98
2023-02-19T18:53:37.501Z,1.13
2023-02-19T18:56:09.022Z,3.55
2023-02-19T18:58:38.301Z,2.78
2023-02-19T19:01:06.241Z,5.43
2023-02-19T19:03:34.216Z,5.28
2023-02-19T19:06:02.101Z,6.15
2023-02-19T19:08:30.810Z,1.83
2023-02-19T19:10:58.988Z,4.22
2023-02-19T19:13:26.956Z,1.25
2023-02-19T19:15:56.331Z,1.70
2023-02-19T19:18:25.103Z,4.75
2023-02-19T19:20:56.701Z,10.20
2023-02-19T19:23:24.628Z,5.30
2023-02-19T19:25:54.041Z,2.92
2023-02-19T19:28:22.027Z,2.10
2023-02-19T19:30:50.084Z,4.45
2023-02-19T19:33:20.401Z,4.32
2023-02-19T19:35:48.402Z,1.80
2023-02-19T19:38:16.375Z,2.38
2023-02-19T19:40:44.223Z,1.98
2023-02-19T19:43:12.690Z,4.18
2023-02-19T19:45:40.540Z,1.35
2023-02-19T19:48:08.938Z,2.05
2023-02-19T19:50:38.831Z,1.90
2023-02-19T19:53:06.705Z,2.72
2023-02-19T19:55:34.626Z,3.95
2023-02-19T19:58:02.549Z,6.68
2023-02-19T20:00:30.416Z,2.67
2023-02-19T20:02:58.431Z,3.95
2023-02-19T20:05:28.547Z,8.93
2023-02-19T20:07:58.035Z,2.95
2023-02-19T20:10:26.157Z,2.30
2023-02-19T20:12:54.061Z,3.17
2023-02-19T20:15:22.819Z,2.10
2023-02-19T20:17:51.239Z,2.08
2023-02-19T20:20:19.565Z,2.97
2023-02-19T20:22:47.457Z,2.92
2023-02-19T20:25:17.207Z,3.35
2023-02-19T20:27:45.415Z,3.03
2023-02-19T20:30:14.711Z,2.30
2023-02-19T20:32:42.890Z,2.92
2023-02-19T20:35:11.408Z,3.40
2023-02-19T20:37:39.421Z,4.60
2023-02-19T20:40:08.394Z,2.97
2023-02-19T20:42:37.842Z,2.00
2023-02-19T20:45:06.025Z,2.78
2023-02-19T20:47:34.028Z,4.75
2023-02-19T20:50:02.015Z,3.50
2023-02-19T20:52:30.355Z,4.10
2023-02-19T20:54:58.577Z,6.47
2023-02-19T20:57:26.615Z,7.47
2023-02-19T20:59:56.065Z,3.42
2023-02-19T21:02:27.941Z,3.30
2023-02-19T21:04:56.160Z,1.52
2023-02-19T21:07:24.118Z,2.42
2023-02-19T21:09:52.243Z,2.85
2023-02-19T21:12:20.233Z,2.28
2023-02-19T21:14:48.259Z,6.95
2023-02-19T21:17:17.554Z,4.53
2023-02-19T21:19:45.539Z,2.22
2023-02-19T21:22:13.521Z,2.53
2023-02-19T21:24:41.512Z,4.22
2023-02-19T21:27:09.687Z,5.18
2023-02-19T21:29:45.283Z,1.90
2023-02-19T21:32:13.742Z,1.83
2023-02-19T21:34:43.430Z,6.65
2023-02-19T21:37:11.855Z,2.22
2023-02-19T21:39:40.030Z,2.25
2023-02-19T21:42:07.954Z,2.20
2023-02-19T21:44:35.896Z,2.75
2023-02-19T21:47:04.219Z,2.05
2023-02-19T21:49:32.076Z,3.15
2023-02-19T21:52:01.402Z,3.90
2023-02-19T21:54:30.320Z,2.72
2023-02-19T21:56:58.278Z,1.92
2023-02-19T21:59:26.311Z,2.28
2023-02-19T22:01:54.304Z,2.75
2023-02-19T22:04:24.576Z,3.42
2023-02-19T22:06:55.583Z,3.15
2023-02-19T22:09:24.890Z,3.30
2023-02-19T22:11:52.926Z,4.30
2023-02-19T22:14:20.824Z,3.60
2023-02-19T22:16:48.768Z,2.03
2023-02-19T22:19:16.763Z,3.05
2023-02-19T22:21:45.516Z,3.78
2023-02-19T22:24:16.579Z,3.63
2023-02-19T22:26:45.933Z,2.65
2023-02-19T22:29:14.432Z,2.13
2023-02-19T22:31:42.730Z,5.47
2023-02-19T22:34:10.725Z,2.50
2023-02-19T22:36:39.325Z,3.13
2023-02-19T22:39:08.208Z,3.03
2023-02-19T22:41:36.237Z,1.83
2023-02-19T22:44:05.671Z,3.92
2023-02-19T22:46:33.742Z,2.55
2023-02-19T22:49:03.490Z,2.58
2023-02-19T22:51:31.872Z,3.08
2023-02-19T22:54:01.955Z,2.67
2023-02-19T22:56:29.942Z,3.10
2023-02-19T22:59:00.673Z,1.70
2023-02-19T23:01:30.048Z,2.60
2023-02-19T23:03:58.910Z,1.88
2023-02-19T23:06:27.394Z,2.88
2023-02-19T23:08:56.625Z,2.58
2023-02-19T23:11:25.355Z,5.32
2023-02-19T23:13:53.465Z,3.08
2023-02-19T23:16:22.065Z,3.15
2023-02-19T23:18:51.340Z,3.60
2023-02-19T23:21:20.006Z,3.40
2023-02-19T23:23:48.127Z,2.80
2023-02-19T23:26:16.649Z,5.95
2023-02-19T23:28:44.901Z,2.25
2023-02-19T23:31:13.337Z,2.47
2023-02-19T23:33:41.282Z,6.07
2023-02-19T23:36:11.727Z,2.75
2023-02-19T23:38:39.724Z,3.05
2023-02-19T23:41:10.352Z,2.55
2023-02-19T23:43:38.330Z,4.88
2023-02-19T23:46:06.715Z,2.95
2023-02-19T23:48:34.560Z,5.20
2023-02-19T23:51:02.520Z,3.35
2023-02-19T23:53:31.895Z,4.70
2023-02-19T23:55:59.840Z,4.10
2023-02-19T23:58:28.961Z,4.03
